sensor_id;sensor_type;location;lat;lon;timestamp;P1;durP1;ratioP1;P2;durP2;ratioP2
65656;SDS011;57397;50.096;14.404;2023-06-05T00:00:41;1.70;;;1.20;;
65656;SDS011;57397;50.096;14.404;2023-06-05T00:03:06;1.58;;;1.35;;
65656;SDS011;57397;50.096;14.404;2023-06-05T00:05:32;1.55;;;1.00;;
65656;SDS011;57397;50.096;14.404;2023-06-05T00:07:57;2.15;;;1.40;;
65656;SDS011;57397;50.096;14.404;2023-06-05T00:10:23;1.70;;;1.20;;
65656;SDS011;57397;50.096;14.404;2023-06-05T00:12:49;2.08;;;1.20;;
65656;SDS011;57397;50.096;14.404;2023-06-05T00:15:15;1.90;;;1.30;;
65656;SDS011;57397;50.096;14.404;2023-06-05T00:17:41;1.58;;;1.17;;
65656;SDS011;57397;50.096;14.404;2023-06-05T00:20:06;2.00;;;1.17;;
65656;SDS011;57397;50.096;14.404;2023-06-05T00:22:34;1.42;;;1.10;;
65656;SDS011;57397;50.096;14.404;2023-06-05T00:25:00;1.77;;;1.20;;
65656;SDS011;57397;50.096;14.404;2023-06-05T00:27:27;1.73;;;1.20;;
65656;SDS011;57397;50.096;14.404;2023-06-05T00:29:53;2.45;;;1.33;;
65656;SDS011;57397;50.096;14.404;2023-06-05T00:32:19;1.92;;;1.17;;
65656;SDS011;57397;50.096;14.404;2023-06-05T00:34:44;1.50;;;1.10;;
65656;SDS011;57397;50.096;14.404;2023-06-05T00:37:12;1.92;;;1.30;;
65656;SDS011;57397;50.096;14.404;2023-06-05T00:39:40;1.92;;;1.30;;
65656;SDS011;57397;50.096;14.404;2023-06-05T00:42:06;1.50;;;1.10;;
65656;SDS011;57397;50.096;14.404;2023-06-05T00:44:33;1.80;;;1.30;;
65656;SDS011;57397;50.096;14.404;2023-06-05T00:46:59;1.60;;;1.20;;
65656;SDS011;57397;50.096;14.404;2023-06-05T00:49:26;1.90;;;1.30;;
65656;SDS011;57397;50.096;14.404;2023-06-05T00:51:52;2.45;;;1.38;;
65656;SDS011;57397;50.096;14.404;2023-06-05T00:54:17;1.50;;;1.20;;
65656;SDS011;57397;50.096;14.404;2023-06-05T00:56:43;1.80;;;1.20;;
65656;SDS011;57397;50.096;14.404;2023-06-05T00:59:09;1.90;;;1.05;;
65656;SDS011;57397;50.096;14.404;2023-06-05T01:01:35;1.70;;;1.35;;
65656;SDS011;57397;50.096;14.404;2023-06-05T01:04:01;1.42;;;1.17;;
65656;SDS011;57397;50.096;14.404;2023-06-05T01:06:27;1.30;;;1.05;;
65656;SDS011;57397;50.096;14.404;2023-06-05T01:08:54;1.55;;;1.10;;
65656;SDS011;57397;50.096;14.404;2023-06-05T01:14:15;1.65;;;1.20;;
65656;SDS011;57397;50.096;14.404;2023-06-05T01:16:51;1.45;;;1.15;;
65656;SDS011;57397;50.096;14.404;2023-06-05T01:19:21;1.45;;;1.10;;
65656;SDS011;57397;50.096;14.404;2023-06-05T01:21:51;1.25;;;1.10;;
65656;SDS011;57397;50.096;14.404;2023-06-05T01:24:17;1.42;;;1.00;;
65656;SDS011;57397;50.096;14.404;2023-06-05T01:29:39;1.48;;;1.10;;
65656;SDS011;57397;50.096;14.404;2023-06-05T01:32:13;2.20;;;1.40;;
65656;SDS011;57397;50.096;14.404;2023-06-05T01:34:41;2.28;;;1.20;;
65656;SDS011;57397;50.096;14.404;2023-06-05T01:37:09;2.72;;;1.33;;
65656;SDS011;57397;50.096;14.404;2023-06-05T01:39:40;1.67;;;1.20;;
65656;SDS011;57397;50.096;14.404;2023-06-05T01:42:09;1.63;;;1.20;;
65656;SDS011;57397;50.096;14.404;2023-06-05T01:44:35;1.80;;;1.30;;
65656;SDS011;57397;50.096;14.404;2023-06-05T01:47:01;1.83;;;1.10;;
65656;SDS011;57397;50.096;14.404;2023-06-05T01:49:27;1.58;;;1.30;;
65656;SDS011;57397;50.096;14.404;2023-06-05T01:51:52;1.25;;;1.10;;
65656;SDS011;57397;50.096;14.404;2023-06-05T01:54:20;2.05;;;1.20;;
65656;SDS011;57397;50.096;14.404;2023-06-05T01:56:48;2.05;;;1.45;;
65656;SDS011;57397;50.096;14.404;2023-06-05T01:59:14;2.40;;;1.63;;
65656;SDS011;57397;50.096;14.404;2023-06-05T02:01:41;1.50;;;1.15;;
65656;SDS011;57397;50.096;14.404;2023-06-05T02:04:09;1.80;;;1.30;;
65656;SDS011;57397;50.096;14.404;2023-06-05T02:06:35;1.75;;;1.20;;
65656;SDS011;57397;50.096;14.404;2023-06-05T02:09:07;1.65;;;1.20;;
65656;SDS011;57397;50.096;14.404;2023-06-05T02:11:34;2.83;;;1.30;;
65656;SDS011;57397;50.096;14.404;2023-06-05T02:14:02;2.00;;;1.30;;
65656;SDS011;57397;50.096;14.404;2023-06-05T02:16:38;1.50;;;1.20;;
65656;SDS011;57397;50.096;14.404;2023-06-05T02:19:05;1.58;;;1.20;;
65656;SDS011;57397;50.096;14.404;2023-06-05T02:21:31;1.92;;;1.33;;
65656;SDS011;57397;50.096;14.404;2023-06-05T02:24:01;2.20;;;1.30;;
65656;SDS011;57397;50.096;14.404;2023-06-05T02:26:27;1.67;;;1.30;;
65656;SDS011;57397;50.096;14.404;2023-06-05T02:28:53;2.00;;;1.10;;
65656;SDS011;57397;50.096;14.404;2023-06-05T02:31:22;1.60;;;1.27;;
65656;SDS011;57397;50.096;14.404;2023-06-05T02:36:21;3.20;;;1.42;;
65656;SDS011;57397;50.096;14.404;2023-06-05T02:38:48;1.88;;;1.30;;
65656;SDS011;57397;50.096;14.404;2023-06-05T02:41:17;1.83;;;1.33;;
65656;SDS011;57397;50.096;14.404;2023-06-05T02:43:43;1.80;;;1.30;;
65656;SDS011;57397;50.096;14.404;2023-06-05T02:46:09;1.55;;;1.20;;
65656;SDS011;57397;50.096;14.404;2023-06-05T02:48:36;1.92;;;1.30;;
65656;SDS011;57397;50.096;14.404;2023-06-05T02:51:01;1.33;;;1.10;;
65656;SDS011;57397;50.096;14.404;2023-06-05T02:53:28;2.95;;;1.33;;
65656;SDS011;57397;50.096;14.404;2023-06-05T02:55:54;1.85;;;1.30;;
65656;SDS011;57397;50.096;14.404;2023-06-05T02:58:21;2.17;;;1.38;;
65656;SDS011;57397;50.096;14.404;2023-06-05T03:00:47;1.98;;;1.30;;
65656;SDS011;57397;50.096;14.404;2023-06-05T03:03:13;1.63;;;1.13;;
65656;SDS011;57397;50.096;14.404;2023-06-05T03:05:42;3.03;;;1.33;;
65656;SDS011;57397;50.096;14.404;2023-06-05T03:08:09;1.40;;;1.05;;
65656;SDS011;57397;50.096;14.404;2023-06-05T03:10:35;1.83;;;1.30;;
65656;SDS011;57397;50.096;14.404;2023-06-05T03:13:01;1.70;;;1.27;;
65656;SDS011;57397;50.096;14.404;2023-06-05T03:15:27;1.90;;;1.23;;
65656;SDS011;57397;50.096;14.404;2023-06-05T03:17:53;2.10;;;1.50;;
65656;SDS011;57397;50.096;14.404;2023-06-05T03:20:18;2.67;;;1.40;;
65656;SDS011;57397;50.096;14.404;2023-06-05T03:22:44;1.80;;;1.25;;
65656;SDS011;57397;50.096;14.404;2023-06-05T03:25:10;1.65;;;1.27;;
65656;SDS011;57397;50.096;14.404;2023-06-05T03:27:35;2.22;;;1.20;;
65656;SDS011;57397;50.096;14.404;2023-06-05T03:30:01;1.63;;;1.30;;
65656;SDS011;57397;50.096;14.404;2023-06-05T03:32:27;2.38;;;1.52;;
65656;SDS011;57397;50.096;14.404;2023-06-05T03:34:53;2.03;;;1.40;;
65656;SDS011;57397;50.096;14.404;2023-06-05T03:37:18;2.00;;;1.50;;
65656;SDS011;57397;50.096;14.404;2023-06-05T03:39:44;1.98;;;1.58;;
65656;SDS011;57397;50.096;14.404;2023-06-05T03:42:09;2.38;;;1.55;;
65656;SDS011;57397;50.096;14.404;2023-06-05T03:44:36;2.47;;;1.70;;
65656;SDS011;57397;50.096;14.404;2023-06-05T03:47:02;2.33;;;1.58;;
65656;SDS011;57397;50.096;14.404;2023-06-05T03:49:28;2.70;;;1.77;;
65656;SDS011;57397;50.096;14.404;2023-06-05T03:51:54;2.53;;;1.50;;
65656;SDS011;57397;50.096;14.404;2023-06-05T03:54:29;2.25;;;1.60;;
65656;SDS011;57397;50.096;14.404;2023-06-05T03:56:58;2.17;;;1.58;;
65656;SDS011;57397;50.096;14.404;2023-06-05T03:59:25;1.90;;;1.60;;
65656;SDS011;57397;50.096;14.404;2023-06-05T04:01:53;2.00;;;1.58;;
65656;SDS011;57397;50.096;14.404;2023-06-05T04:04:19;2.10;;;1.67;;
65656;SDS011;57397;50.096;14.404;2023-06-05T04:06:45;3.03;;;1.60;;
65656;SDS011;57397;50.096;14.404;2023-06-05T04:09:12;2.22;;;1.42;;
65656;SDS011;57397;50.096;14.404;2023-06-05T04:11:41;1.95;;;1.60;;
65656;SDS011;57397;50.096;14.404;2023-06-05T04:14:07;2.28;;;1.50;;
65656;SDS011;57397;50.096;14.404;2023-06-05T04:16:34;2.13;;;1.52;;
65656;SDS011;57397;50.096;14.404;2023-06-05T04:19:06;2.00;;;1.63;;
65656;SDS011;57397;50.096;14.404;2023-06-05T04:21:34;2.17;;;1.60;;
65656;SDS011;57397;50.096;14.404;2023-06-05T04:24:01;2.58;;;1.70;;
65656;SDS011;57397;50.096;14.404;2023-06-05T04:26:32;1.98;;;1.52;;
65656;SDS011;57397;50.096;14.404;2023-06-05T04:28:58;1.73;;;1.30;;
65656;SDS011;57397;50.096;14.404;2023-06-05T04:31:24;3.00;;;1.67;;
65656;SDS011;57397;50.096;14.404;2023-06-05T04:33:50;2.67;;;1.70;;
65656;SDS011;57397;50.096;14.404;2023-06-05T04:36:16;2.50;;;1.60;;
65656;SDS011;57397;50.096;14.404;2023-06-05T04:38:43;1.75;;;1.40;;
65656;SDS011;57397;50.096;14.404;2023-06-05T04:41:10;2.50;;;1.73;;
65656;SDS011;57397;50.096;14.404;2023-06-05T04:43:36;2.20;;;1.55;;
65656;SDS011;57397;50.096;14.404;2023-06-05T04:46:01;2.40;;;1.60;;
65656;SDS011;57397;50.096;14.404;2023-06-05T04:48:28;1.90;;;1.52;;
65656;SDS011;57397;50.096;14.404;2023-06-05T04:50:54;2.60;;;1.70;;
65656;SDS011;57397;50.096;14.404;2023-06-05T04:53:21;2.17;;;1.75;;
65656;SDS011;57397;50.096;14.404;2023-06-05T04:55:47;2.33;;;1.63;;
65656;SDS011;57397;50.096;14.404;2023-06-05T04:58:13;2.25;;;1.70;;
65656;SDS011;57397;50.096;14.404;2023-06-05T05:00:41;2.78;;;1.70;;
65656;SDS011;57397;50.096;14.404;2023-06-05T05:03:09;2.08;;;1.70;;
65656;SDS011;57397;50.096;14.404;2023-06-05T05:05:38;2.53;;;1.73;;
65656;SDS011;57397;50.096;14.404;2023-06-05T05:08:04;2.13;;;1.70;;
65656;SDS011;57397;50.096;14.404;2023-06-05T05:10:30;4.13;;;1.88;;
65656;SDS011;57397;50.096;14.404;2023-06-05T05:12:57;2.53;;;1.63;;
65656;SDS011;57397;50.096;14.404;2023-06-05T05:15:26;2.13;;;1.50;;
65656;SDS011;57397;50.096;14.404;2023-06-05T05:17:52;2.53;;;1.60;;
65656;SDS011;57397;50.096;14.404;2023-06-05T05:20:17;2.38;;;1.73;;
65656;SDS011;57397;50.096;14.404;2023-06-05T05:22:43;2.10;;;1.63;;
65656;SDS011;57397;50.096;14.404;2023-06-05T05:25:10;2.72;;;1.70;;
65656;SDS011;57397;50.096;14.404;2023-06-05T05:27:36;2.78;;;1.67;;
65656;SDS011;57397;50.096;14.404;2023-06-05T05:30:01;1.98;;;1.58;;
65656;SDS011;57397;50.096;14.404;2023-06-05T05:32:27;1.92;;;1.48;;
65656;SDS011;57397;50.096;14.404;2023-06-05T05:34:53;2.30;;;1.75;;
65656;SDS011;57397;50.096;14.404;2023-06-05T05:37:19;2.50;;;1.42;;
65656;SDS011;57397;50.096;14.404;2023-06-05T05:39:44;2.88;;;1.52;;
65656;SDS011;57397;50.096;14.404;2023-06-05T05:42:10;2.40;;;1.42;;
65656;SDS011;57397;50.096;14.404;2023-06-05T05:44:35;2.80;;;1.50;;
65656;SDS011;57397;50.096;14.404;2023-06-05T05:47:01;2.78;;;1.58;;
65656;SDS011;57397;50.096;14.404;2023-06-05T05:49:27;1.88;;;1.50;;
65656;SDS011;57397;50.096;14.404;2023-06-05T05:51:52;2.28;;;1.60;;
65656;SDS011;57397;50.096;14.404;2023-06-05T05:54:18;2.60;;;1.70;;
65656;SDS011;57397;50.096;14.404;2023-06-05T05:56:43;2.47;;;1.88;;
65656;SDS011;57397;50.096;14.404;2023-06-05T05:59:09;2.53;;;1.70;;
65656;SDS011;57397;50.096;14.404;2023-06-05T06:01:34;2.95;;;2.00;;
65656;SDS011;57397;50.096;14.404;2023-06-05T06:04:00;2.20;;;1.70;;
65656;SDS011;57397;50.096;14.404;2023-06-05T06:06:27;2.25;;;1.70;;
65656;SDS011;57397;50.096;14.404;2023-06-05T06:08:53;1.90;;;1.50;;
65656;SDS011;57397;50.096;14.404;2023-06-05T06:11:19;2.75;;;1.70;;
65656;SDS011;57397;50.096;14.404;2023-06-05T06:13:44;2.45;;;1.70;;
65656;SDS011;57397;50.096;14.404;2023-06-05T06:16:10;3.05;;;1.50;;
65656;SDS011;57397;50.096;14.404;2023-06-05T06:18:35;2.25;;;1.80;;
65656;SDS011;57397;50.096;14.404;2023-06-05T06:21:01;2.28;;;1.60;;
65656;SDS011;57397;50.096;14.404;2023-06-05T06:23:26;2.17;;;1.70;;
65656;SDS011;57397;50.096;14.404;2023-06-05T06:25:52;2.25;;;1.52;;
65656;SDS011;57397;50.096;14.404;2023-06-05T06:28:18;2.45;;;1.70;;
65656;SDS011;57397;50.096;14.404;2023-06-05T06:30:44;2.08;;;1.50;;
65656;SDS011;57397;50.096;14.404;2023-06-05T06:33:10;2.67;;;1.73;;
65656;SDS011;57397;50.096;14.404;2023-06-05T06:35:35;2.55;;;1.63;;
65656;SDS011;57397;50.096;14.404;2023-06-05T06:38:01;2.20;;;1.70;;
65656;SDS011;57397;50.096;14.404;2023-06-05T06:40:28;2.40;;;1.60;;
65656;SDS011;57397;50.096;14.404;2023-06-05T06:42:54;1.70;;;1.52;;
65656;SDS011;57397;50.096;14.404;2023-06-05T06:45:20;2.38;;;1.77;;
65656;SDS011;57397;50.096;14.404;2023-06-05T06:47:46;2.63;;;1.80;;
65656;SDS011;57397;50.096;14.404;2023-06-05T06:50:12;2.03;;;1.40;;
65656;SDS011;57397;50.096;14.404;2023-06-05T06:52:38;2.03;;;1.52;;
65656;SDS011;57397;50.096;14.404;2023-06-05T06:55:04;2.60;;;1.90;;
65656;SDS011;57397;50.096;14.404;2023-06-05T06:57:31;2.80;;;2.00;;
65656;SDS011;57397;50.096;14.404;2023-06-05T06:59:57;4.22;;;1.90;;
65656;SDS011;57397;50.096;14.404;2023-06-05T07:02:23;2.50;;;1.80;;
65656;SDS011;57397;50.096;14.404;2023-06-05T07:04:49;2.40;;;1.70;;
65656;SDS011;57397;50.096;14.404;2023-06-05T07:07:15;2.00;;;1.70;;
65656;SDS011;57397;50.096;14.404;2023-06-05T07:09:42;2.97;;;1.70;;
65656;SDS011;57397;50.096;14.404;2023-06-05T07:12:09;2.58;;;1.80;;
65656;SDS011;57397;50.096;14.404;2023-06-05T07:14:35;2.05;;;1.60;;
65656;SDS011;57397;50.096;14.404;2023-06-05T07:17:01;2.22;;;1.77;;
65656;SDS011;57397;50.096;14.404;2023-06-05T07:19:28;3.35;;;1.88;;
65656;SDS011;57397;50.096;14.404;2023-06-05T07:21:54;3.08;;;1.90;;
65656;SDS011;57397;50.096;14.404;2023-06-05T07:24:24;2.42;;;1.73;;
65656;SDS011;57397;50.096;14.404;2023-06-05T07:26:51;2.58;;;1.70;;
65656;SDS011;57397;50.096;14.404;2023-06-05T07:29:18;2.88;;;1.60;;
65656;SDS011;57397;50.096;14.404;2023-06-05T07:31:46;2.17;;;1.80;;
65656;SDS011;57397;50.096;14.404;2023-06-05T07:34:12;2.53;;;1.90;;
65656;SDS011;57397;50.096;14.404;2023-06-05T07:36:38;2.45;;;1.80;;
65656;SDS011;57397;50.096;14.404;2023-06-05T07:39:04;3.05;;;1.88;;
65656;SDS011;57397;50.096;14.404;2023-06-05T07:41:30;2.08;;;1.67;;
65656;SDS011;57397;50.096;14.404;2023-06-05T07:43:55;2.20;;;1.77;;
65656;SDS011;57397;50.096;14.404;2023-06-05T07:46:21;2.55;;;1.80;;
65656;SDS011;57397;50.096;14.404;2023-06-05T07:48:46;3.38;;;1.90;;
65656;SDS011;57397;50.096;14.404;2023-06-05T07:51:12;2.50;;;1.95;;
65656;SDS011;57397;50.096;14.404;2023-06-05T07:53:37;2.55;;;1.98;;
65656;SDS011;57397;50.096;14.404;2023-06-05T07:56:03;3.03;;;1.75;;
65656;SDS011;57397;50.096;14.404;2023-06-05T07:58:28;2.58;;;1.73;;
65656;SDS011;57397;50.096;14.404;2023-06-05T08:00:54;2.97;;;1.92;;
65656;SDS011;57397;50.096;14.404;2023-06-05T08:03:22;2.28;;;1.75;;
65656;SDS011;57397;50.096;14.404;2023-06-05T08:05:51;3.65;;;2.03;;
65656;SDS011;57397;50.096;14.404;2023-06-05T08:08:17;2.80;;;1.90;;
65656;SDS011;57397;50.096;14.404;2023-06-05T08:10:43;2.17;;;1.70;;
65656;SDS011;57397;50.096;14.404;2023-06-05T08:13:08;3.58;;;1.88;;
65656;SDS011;57397;50.096;14.404;2023-06-05T08:15:34;3.30;;;1.83;;
65656;SDS011;57397;50.096;14.404;2023-06-05T08:18:00;2.38;;;1.90;;
65656;SDS011;57397;50.096;14.404;2023-06-05T08:20:26;2.75;;;2.00;;
65656;SDS011;57397;50.096;14.404;2023-06-05T08:22:51;2.35;;;1.80;;
65656;SDS011;57397;50.096;14.404;2023-06-05T08:25:17;3.53;;;2.17;;
65656;SDS011;57397;50.096;14.404;2023-06-05T08:27:43;2.58;;;1.83;;
65656;SDS011;57397;50.096;14.404;2023-06-05T08:30:08;2.30;;;2.00;;
65656;SDS011;57397;50.096;14.404;2023-06-05T08:32:35;3.13;;;1.98;;
65656;SDS011;57397;50.096;14.404;2023-06-05T08:35:01;3.38;;;2.00;;
65656;SDS011;57397;50.096;14.404;2023-06-05T08:37:27;3.38;;;2.10;;
65656;SDS011;57397;50.096;14.404;2023-06-05T08:39:53;2.60;;;2.05;;
65656;SDS011;57397;50.096;14.404;2023-06-05T08:42:25;2.63;;;1.85;;
65656;SDS011;57397;50.096;14.404;2023-06-05T08:44:53;2.90;;;1.83;;
65656;SDS011;57397;50.096;14.404;2023-06-05T08:47:19;2.63;;;1.90;;
65656;SDS011;57397;50.096;14.404;2023-06-05T08:49:48;2.80;;;2.00;;
65656;SDS011;57397;50.096;14.404;2023-06-05T08:52:17;2.17;;;1.77;;
65656;SDS011;57397;50.096;14.404;2023-06-05T08:54:44;2.25;;;1.80;;
65656;SDS011;57397;50.096;14.404;2023-06-05T08:57:10;2.70;;;1.88;;
65656;SDS011;57397;50.096;14.404;2023-06-05T08:59:35;2.92;;;1.98;;
65656;SDS011;57397;50.096;14.404;2023-06-05T09:02:01;3.30;;;2.00;;
65656;SDS011;57397;50.096;14.404;2023-06-05T09:04:27;2.80;;;2.20;;
65656;SDS011;57397;50.096;14.404;2023-06-05T09:06:58;2.70;;;1.90;;
65656;SDS011;57397;50.096;14.404;2023-06-05T09:09:27;2.33;;;1.85;;
65656;SDS011;57397;50.096;14.404;2023-06-05T09:12:05;2.60;;;1.88;;
65656;SDS011;57397;50.096;14.404;2023-06-05T09:14:34;3.08;;;1.83;;
65656;SDS011;57397;50.096;14.404;2023-06-05T09:17:00;2.50;;;2.08;;
65656;SDS011;57397;50.096;14.404;2023-06-05T09:19:37;2.33;;;1.90;;
65656;SDS011;57397;50.096;14.404;2023-06-05T09:22:03;2.72;;;1.75;;
65656;SDS011;57397;50.096;14.404;2023-06-05T09:24:30;2.13;;;1.70;;
65656;SDS011;57397;50.096;14.404;2023-06-05T09:27:03;2.47;;;1.90;;
65656;SDS011;57397;50.096;14.404;2023-06-05T09:29:39;2.67;;;2.00;;
65656;SDS011;57397;50.096;14.404;2023-06-05T09:32:09;2.42;;;1.90;;
65656;SDS011;57397;50.096;14.404;2023-06-05T09:34:41;2.60;;;2.10;;
65656;SDS011;57397;50.096;14.404;2023-06-05T09:37:10;2.35;;;1.95;;
65656;SDS011;57397;50.096;14.404;2023-06-05T09:39:37;2.65;;;2.00;;
65656;SDS011;57397;50.096;14.404;2023-06-05T09:42:03;2.50;;;1.90;;
65656;SDS011;57397;50.096;14.404;2023-06-05T09:44:30;2.35;;;1.75;;
65656;SDS011;57397;50.096;14.404;2023-06-05T09:47:07;2.67;;;1.80;;
65656;SDS011;57397;50.096;14.404;2023-06-05T09:52:07;2.90;;;2.15;;
65656;SDS011;57397;50.096;14.404;2023-06-05T09:54:34;3.05;;;2.10;;
65656;SDS011;57397;50.096;14.404;2023-06-05T09:57:02;2.70;;;2.20;;
65656;SDS011;57397;50.096;14.404;2023-06-05T09:59:29;2.60;;;2.08;;
65656;SDS011;57397;50.096;14.404;2023-06-05T10:01:58;2.70;;;2.10;;
65656;SDS011;57397;50.096;14.404;2023-06-05T10:04:26;2.20;;;1.98;;
65656;SDS011;57397;50.096;14.404;2023-06-05T10:06:54;2.95;;;2.10;;
65656;SDS011;57397;50.096;14.404;2023-06-05T10:09:23;2.90;;;2.25;;
65656;SDS011;57397;50.096;14.404;2023-06-05T10:11:49;2.80;;;2.15;;
65656;SDS011;57397;50.096;14.404;2023-06-05T10:14:15;3.05;;;2.20;;
65656;SDS011;57397;50.096;14.404;2023-06-05T10:16:41;3.22;;;2.42;;
65656;SDS011;57397;50.096;14.404;2023-06-05T10:19:08;3.88;;;2.63;;
65656;SDS011;57397;50.096;14.404;2023-06-05T10:21:34;3.63;;;2.30;;
65656;SDS011;57397;50.096;14.404;2023-06-05T10:24:02;3.00;;;2.40;;
65656;SDS011;57397;50.096;14.404;2023-06-05T10:32:22;3.38;;;2.45;;
65656;SDS011;57397;50.096;14.404;2023-06-05T10:40:32;3.70;;;2.72;;
65656;SDS011;57397;50.096;14.404;2023-06-05T10:45:52;3.40;;;2.35;;
65656;SDS011;57397;50.096;14.404;2023-06-05T10:48:18;3.00;;;2.50;;
65656;SDS011;57397;50.096;14.404;2023-06-05T10:50:43;2.67;;;2.33;;
65656;SDS011;57397;50.096;14.404;2023-06-05T10:53:54;3.33;;;2.45;;
65656;SDS011;57397;50.096;14.404;2023-06-05T10:59:21;5.47;;;2.80;;
65656;SDS011;57397;50.096;14.404;2023-06-05T11:07:20;3.83;;;2.55;;
65656;SDS011;57397;50.096;14.404;2023-06-05T11:17:37;3.97;;;2.58;;
65656;SDS011;57397;50.096;14.404;2023-06-05T11:30:23;4.25;;;3.00;;
65656;SDS011;57397;50.096;14.404;2023-06-05T11:32:51;3.63;;;3.00;;
65656;SDS011;57397;50.096;14.404;2023-06-05T11:35:22;3.80;;;2.70;;
65656;SDS011;57397;50.096;14.404;2023-06-05T11:37:48;3.78;;;2.67;;
65656;SDS011;57397;50.096;14.404;2023-06-05T11:40:23;4.00;;;2.90;;
65656;SDS011;57397;50.096;14.404;2023-06-05T11:42:49;3.13;;;2.70;;
65656;SDS011;57397;50.096;14.404;2023-06-05T11:45:15;3.72;;;2.78;;
65656;SDS011;57397;50.096;14.404;2023-06-05T11:47:40;3.03;;;2.65;;
65656;SDS011;57397;50.096;14.404;2023-06-05T11:50:09;3.50;;;2.72;;
65656;SDS011;57397;50.096;14.404;2023-06-05T11:52:39;3.55;;;2.75;;
65656;SDS011;57397;50.096;14.404;2023-06-05T11:55:18;4.03;;;2.92;;
65656;SDS011;57397;50.096;14.404;2023-06-05T11:57:54;3.50;;;2.80;;
65656;SDS011;57397;50.096;14.404;2023-06-05T12:00:23;4.70;;;2.90;;
65656;SDS011;57397;50.096;14.404;2023-06-05T12:02:51;3.08;;;2.78;;
65656;SDS011;57397;50.096;14.404;2023-06-05T12:05:16;4.65;;;2.85;;
65656;SDS011;57397;50.096;14.404;2023-06-05T12:07:42;4.13;;;2.83;;
65656;SDS011;57397;50.096;14.404;2023-06-05T12:10:08;3.75;;;3.00;;
65656;SDS011;57397;50.096;14.404;2023-06-05T12:12:55;4.38;;;3.28;;
65656;SDS011;57397;50.096;14.404;2023-06-05T12:15:21;4.10;;;3.40;;
65656;SDS011;57397;50.096;14.404;2023-06-05T12:17:50;4.25;;;3.00;;
65656;SDS011;57397;50.096;14.404;2023-06-05T12:20:17;3.17;;;2.70;;
65656;SDS011;57397;50.096;14.404;2023-06-05T12:22:43;3.95;;;2.75;;
65656;SDS011;57397;50.096;14.404;2023-06-05T12:27:46;4.10;;;3.10;;
65656;SDS011;57397;50.096;14.404;2023-06-05T12:30:14;3.33;;;2.85;;
65656;SDS011;57397;50.096;14.404;2023-06-05T12:32:41;3.40;;;3.00;;
65656;SDS011;57397;50.096;14.404;2023-06-05T12:35:21;4.55;;;3.15;;
65656;SDS011;57397;50.096;14.404;2023-06-05T12:37:48;4.00;;;3.00;;
65656;SDS011;57397;50.096;14.404;2023-06-05T12:40:15;3.97;;;3.00;;
65656;SDS011;57397;50.096;14.404;2023-06-05T12:42:46;4.50;;;3.15;;
65656;SDS011;57397;50.096;14.404;2023-06-05T12:45:12;5.10;;;3.15;;
65656;SDS011;57397;50.096;14.404;2023-06-05T12:47:38;4.18;;;3.28;;
65656;SDS011;57397;50.096;14.404;2023-06-05T12:50:05;3.60;;;3.03;;
65656;SDS011;57397;50.096;14.404;2023-06-05T12:52:37;3.70;;;3.08;;
65656;SDS011;57397;50.096;14.404;2023-06-05T12:55:03;3.80;;;3.17;;
65656;SDS011;57397;50.096;14.404;2023-06-05T12:57:30;4.53;;;3.28;;
65656;SDS011;57397;50.096;14.404;2023-06-05T12:59:57;4.10;;;3.15;;
65656;SDS011;57397;50.096;14.404;2023-06-05T13:02:22;4.57;;;3.17;;
65656;SDS011;57397;50.096;14.404;2023-06-05T13:04:48;5.53;;;2.92;;
65656;SDS011;57397;50.096;14.404;2023-06-05T13:07:13;4.28;;;2.92;;
65656;SDS011;57397;50.096;14.404;2023-06-05T13:09:39;4.40;;;3.03;;
65656;SDS011;57397;50.096;14.404;2023-06-05T13:12:05;3.60;;;3.00;;
65656;SDS011;57397;50.096;14.404;2023-06-05T13:14:31;3.40;;;3.00;;
65656;SDS011;57397;50.096;14.404;2023-06-05T13:16:57;5.85;;;3.40;;
65656;SDS011;57397;50.096;14.404;2023-06-05T13:19:22;3.20;;;2.80;;
65656;SDS011;57397;50.096;14.404;2023-06-05T13:21:48;3.70;;;2.90;;
65656;SDS011;57397;50.096;14.404;2023-06-05T13:24:14;3.53;;;2.80;;
65656;SDS011;57397;50.096;14.404;2023-06-05T13:26:39;3.40;;;2.70;;
65656;SDS011;57397;50.096;14.404;2023-06-05T13:29:07;2.60;;;2.30;;
65656;SDS011;57397;50.096;14.404;2023-06-05T13:31:33;3.38;;;2.90;;
65656;SDS011;57397;50.096;14.404;2023-06-05T13:33:59;2.85;;;2.55;;
65656;SDS011;57397;50.096;14.404;2023-06-05T13:36:24;3.83;;;2.72;;
65656;SDS011;57397;50.096;14.404;2023-06-05T13:38:51;4.82;;;2.80;;
65656;SDS011;57397;50.096;14.404;2023-06-05T13:41:16;4.80;;;3.10;;
65656;SDS011;57397;50.096;14.404;2023-06-05T13:43:42;4.03;;;2.85;;
65656;SDS011;57397;50.096;14.404;2023-06-05T13:46:07;3.83;;;2.88;;
65656;SDS011;57397;50.096;14.404;2023-06-05T13:48:33;4.05;;;3.20;;
65656;SDS011;57397;50.096;14.404;2023-06-05T13:51:00;4.50;;;3.00;;
65656;SDS011;57397;50.096;14.404;2023-06-05T13:53:26;4.60;;;2.92;;
65656;SDS011;57397;50.096;14.404;2023-06-05T13:55:52;5.18;;;3.05;;
65656;SDS011;57397;50.096;14.404;2023-06-05T13:58:18;4.05;;;3.08;;
65656;SDS011;57397;50.096;14.404;2023-06-05T14:00:43;3.63;;;2.88;;
65656;SDS011;57397;50.096;14.404;2023-06-05T14:03:09;4.45;;;3.00;;
65656;SDS011;57397;50.096;14.404;2023-06-05T14:05:35;3.90;;;2.80;;
65656;SDS011;57397;50.096;14.404;2023-06-05T14:08:01;3.97;;;3.03;;
65656;SDS011;57397;50.096;14.404;2023-06-05T14:10:26;3.80;;;2.92;;
65656;SDS011;57397;50.096;14.404;2023-06-05T14:12:52;3.65;;;2.90;;
65656;SDS011;57397;50.096;14.404;2023-06-05T14:15:18;4.22;;;3.08;;
65656;SDS011;57397;50.096;14.404;2023-06-05T14:17:48;3.78;;;2.80;;
65656;SDS011;57397;50.096;14.404;2023-06-05T14:20:15;3.63;;;2.97;;
65656;SDS011;57397;50.096;14.404;2023-06-05T14:22:40;3.95;;;2.90;;
65656;SDS011;57397;50.096;14.404;2023-06-05T14:25:07;3.47;;;2.92;;
65656;SDS011;57397;50.096;14.404;2023-06-05T14:27:33;3.10;;;2.78;;
65656;SDS011;57397;50.096;14.404;2023-06-05T14:29:58;3.78;;;2.60;;
65656;SDS011;57397;50.096;14.404;2023-06-05T14:32:23;3.17;;;2.75;;
65656;SDS011;57397;50.096;14.404;2023-06-05T14:34:49;3.47;;;2.70;;
65656;SDS011;57397;50.096;14.404;2023-06-05T14:37:15;3.60;;;2.90;;
65656;SDS011;57397;50.096;14.404;2023-06-05T14:39:40;4.25;;;2.78;;
65656;SDS011;57397;50.096;14.404;2023-06-05T14:42:06;2.97;;;2.63;;
65656;SDS011;57397;50.096;14.404;2023-06-05T14:44:32;3.35;;;3.00;;
65656;SDS011;57397;50.096;14.404;2023-06-05T14:46:57;3.53;;;2.70;;
65656;SDS011;57397;50.096;14.404;2023-06-05T14:49:23;3.08;;;2.70;;
65656;SDS011;57397;50.096;14.404;2023-06-05T14:51:49;3.30;;;2.78;;
65656;SDS011;57397;50.096;14.404;2023-06-05T14:54:14;4.55;;;3.03;;
65656;SDS011;57397;50.096;14.404;2023-06-05T14:56:40;3.17;;;2.70;;
65656;SDS011;57397;50.096;14.404;2023-06-05T14:59:05;3.72;;;2.80;;
65656;SDS011;57397;50.096;14.404;2023-06-05T15:01:31;3.42;;;2.85;;
65656;SDS011;57397;50.096;14.404;2023-06-05T15:03:57;3.13;;;2.63;;
65656;SDS011;57397;50.096;14.404;2023-06-05T15:06:22;4.28;;;2.90;;
65656;SDS011;57397;50.096;14.404;2023-06-05T15:08:48;4.43;;;3.25;;
65656;SDS011;57397;50.096;14.404;2023-06-05T15:11:13;4.82;;;2.90;;
65656;SDS011;57397;50.096;14.404;2023-06-05T15:13:39;3.60;;;2.75;;
65656;SDS011;57397;50.096;14.404;2023-06-05T15:16:04;4.18;;;3.05;;
65656;SDS011;57397;50.096;14.404;2023-06-05T15:18:30;3.35;;;2.88;;
65656;SDS011;57397;50.096;14.404;2023-06-05T15:20:56;3.28;;;2.72;;
65656;SDS011;57397;50.096;14.404;2023-06-05T15:23:21;3.30;;;3.00;;
65656;SDS011;57397;50.096;14.404;2023-06-05T15:25:47;3.90;;;3.20;;